GIA7405 OEMA-WIII
Flight info
| Callsign | GIA7405 |
|---|---|
| Flight time | N/A |
| Altitude | 37000 |
| Route | MEDRO M872 BDB Y214 RAPMA DCT DEGNO DCT GOBRO L425 ASPUX UL425 TVM N640 KAT M766 PAGAI G461 BIDAK |
| Aircraft | B77W/H-SDE1E2E3FGHIJ2J3J4J5M1RWXY/LB1D1 |
Departure
| Time | N/A |
|---|---|
| Airport | Prince Mohammad Bin Abdulaziz Airport (OEMA) |
Arrival
| Time | 2026-04-28 01:08 |
|---|---|
| Airport | Soekarno-Hatta International Airport (WIII) |
| Time | Latitude | Longitude | Altitude | Speed | Heading |
|---|---|---|---|---|---|
| 2026-04-28 00:30 | -3.18421 | 105.01524 | 36846 ft | 473 kts | 131° |
| 2026-04-28 00:30 | -3.19857 | 105.03227 | 36846 ft | 473 kts | 131° |
| 2026-04-28 00:31 | -3.24097 | 105.08254 | 36846 ft | 473 kts | 131° |
| 2026-04-28 00:31 | -3.28404 | 105.13361 | 36847 ft | 473 kts | 131° |
| 2026-04-28 00:32 | -3.32678 | 105.18430 | 36846 ft | 473 kts | 131° |
| 2026-04-28 00:32 | -3.36984 | 105.23539 | 36846 ft | 473 kts | 131° |
| 2026-04-28 00:33 | -3.41227 | 105.28570 | 36846 ft | 473 kts | 131° |
| 2026-04-28 00:33 | -3.44762 | 105.32765 | 36857 ft | 476 kts | 129° |
| 2026-04-28 00:34 | -3.49110 | 105.37925 | 36871 ft | 486 kts | 129° |
| 2026-04-28 00:34 | -3.53629 | 105.43291 | 36871 ft | 492 kts | 129° |
| 2026-04-28 00:35 | -3.57976 | 105.48452 | 36871 ft | 491 kts | 129° |
| 2026-04-28 00:35 | -3.62349 | 105.53647 | 36871 ft | 490 kts | 129° |
| 2026-04-28 00:36 | -3.66814 | 105.58930 | 36872 ft | 490 kts | 129° |
| 2026-04-28 00:36 | -3.71248 | 105.64185 | 36873 ft | 490 kts | 129° |
| 2026-04-28 00:37 | -3.75656 | 105.69410 | 36875 ft | 490 kts | 129° |
| 2026-04-28 00:37 | -3.79955 | 105.74508 | 36876 ft | 491 kts | 129° |
| 2026-04-28 00:38 | -3.84477 | 105.79866 | 36876 ft | 490 kts | 130° |
| 2026-04-28 00:38 | -3.88883 | 105.85088 | 36875 ft | 490 kts | 129° |
| 2026-04-28 00:39 | -3.93283 | 105.90308 | 36876 ft | 491 kts | 129° |
| 2026-04-28 00:39 | -3.97690 | 105.95538 | 36876 ft | 491 kts | 129° |
| 2026-04-28 00:40 | -4.02153 | 106.00830 | 36874 ft | 490 kts | 130° |
| 2026-04-28 00:40 | -4.06988 | 106.05292 | 36876 ft | 493 kts | 141° |
| 2026-04-28 00:41 | -4.12744 | 106.09488 | 36875 ft | 493 kts | 144° |
| 2026-04-28 00:41 | -4.15523 | 106.11444 | 36874 ft | 480 kts | 144° |
| 2026-04-28 00:41 | -4.18197 | 106.13344 | 36800 ft | 464 kts | 143° |
| 2026-04-28 00:41 | -4.20842 | 106.15236 | 36439 ft | 457 kts | 143° |
| 2026-04-28 00:42 | -4.23434 | 106.17096 | 35635 ft | 461 kts | 143° |
| 2026-04-28 00:42 | -4.26095 | 106.19010 | 34723 ft | 468 kts | 143° |
| 2026-04-28 00:42 | -4.28706 | 106.20889 | 34156 ft | 466 kts | 143° |
| 2026-04-28 00:42 | -4.30553 | 106.22219 | 33992 ft | 460 kts | 142° |
| 2026-04-28 00:43 | -4.33182 | 106.24113 | 33511 ft | 456 kts | 142° |
| 2026-04-28 00:43 | -4.35949 | 106.26105 | 32983 ft | 453 kts | 142° |
| 2026-04-28 00:43 | -4.37545 | 106.27255 | 32680 ft | 452 kts | 142° |
| 2026-04-28 00:43 | -4.40094 | 106.29091 | 32204 ft | 449 kts | 142° |
| 2026-04-28 00:44 | -4.42583 | 106.30885 | 31748 ft | 445 kts | 142° |
| 2026-04-28 00:44 | -4.45164 | 106.32746 | 31269 ft | 442 kts | 142° |
| 2026-04-28 00:44 | -4.47649 | 106.34538 | 30805 ft | 439 kts | 142° |
| 2026-04-28 00:44 | -4.50123 | 106.36322 | 30338 ft | 436 kts | 142° |
| 2026-04-28 00:45 | -4.52587 | 106.38098 | 29870 ft | 434 kts | 142° |
| 2026-04-28 00:45 | -4.55031 | 106.39861 | 29383 ft | 431 kts | 142° |
| 2026-04-28 00:45 | -4.57431 | 106.41593 | 28884 ft | 429 kts | 142° |
| 2026-04-28 00:45 | -4.59868 | 106.43350 | 28381 ft | 426 kts | 142° |
| 2026-04-28 00:46 | -4.62271 | 106.45082 | 27881 ft | 423 kts | 142° |
| 2026-04-28 00:46 | -4.64657 | 106.46803 | 27382 ft | 421 kts | 142° |
| 2026-04-28 00:46 | -4.67057 | 106.48534 | 26879 ft | 418 kts | 142° |
| 2026-04-28 00:46 | -4.69388 | 106.50217 | 26387 ft | 416 kts | 142° |
| 2026-04-28 00:47 | -4.71752 | 106.51923 | 25890 ft | 413 kts | 142° |
| 2026-04-28 00:47 | -4.74078 | 106.53603 | 25400 ft | 411 kts | 143° |
| 2026-04-28 00:47 | -4.76455 | 106.55319 | 24914 ft | 408 kts | 143° |
| 2026-04-28 00:47 | -4.78749 | 106.56976 | 24446 ft | 404 kts | 143° |
| 2026-04-28 00:48 | -4.81021 | 106.58616 | 23980 ft | 401 kts | 143° |
| 2026-04-28 00:48 | -4.83284 | 106.60250 | 23513 ft | 398 kts | 143° |
| 2026-04-28 00:48 | -4.85545 | 106.61834 | 23043 ft | 395 kts | 146° |
| 2026-04-28 00:48 | -4.87927 | 106.63198 | 22580 ft | 393 kts | 151° |
| 2026-04-28 00:49 | -4.90382 | 106.64381 | 22121 ft | 390 kts | 154° |
| 2026-04-28 00:49 | -4.92907 | 106.65496 | 21667 ft | 387 kts | 155° |
| 2026-04-28 00:49 | -4.95343 | 106.66561 | 21226 ft | 383 kts | 155° |
| 2026-04-28 00:49 | -4.97770 | 106.67644 | 20772 ft | 379 kts | 155° |
| 2026-04-28 00:50 | -5.00176 | 106.68735 | 20318 ft | 376 kts | 155° |
| 2026-04-28 00:50 | -5.02550 | 106.69817 | 19863 ft | 373 kts | 155° |
| 2026-04-28 00:50 | -5.04899 | 106.70889 | 19409 ft | 370 kts | 155° |
| 2026-04-28 00:50 | -5.07230 | 106.71955 | 18952 ft | 367 kts | 155° |
| 2026-04-28 00:51 | -5.09574 | 106.73026 | 18489 ft | 364 kts | 155° |
| 2026-04-28 00:51 | -5.11839 | 106.74062 | 18037 ft | 361 kts | 155° |
| 2026-04-28 00:51 | -5.14178 | 106.75131 | 17568 ft | 358 kts | 155° |
| 2026-04-28 00:51 | -5.16432 | 106.76162 | 17113 ft | 355 kts | 155° |
| 2026-04-28 00:52 | -5.18698 | 106.77198 | 16668 ft | 352 kts | 155° |
| 2026-04-28 00:52 | -5.20919 | 106.78201 | 16243 ft | 348 kts | 155° |
| 2026-04-28 00:52 | -5.23119 | 106.79194 | 15822 ft | 344 kts | 155° |
| 2026-04-28 00:52 | -5.25286 | 106.80174 | 15406 ft | 341 kts | 155° |
| 2026-04-28 00:53 | -5.27438 | 106.81148 | 14994 ft | 337 kts | 155° |
| 2026-04-28 00:53 | -5.29304 | 106.81993 | 14641 ft | 334 kts | 155° |
| 2026-04-28 00:53 | -5.30861 | 106.82699 | 14419 ft | 329 kts | 155° |
| 2026-04-28 00:53 | -5.32268 | 106.83337 | 14156 ft | 327 kts | 154° |
| 2026-04-28 00:54 | -5.34333 | 106.84272 | 13765 ft | 324 kts | 154° |
| 2026-04-28 00:54 | -5.36441 | 106.85228 | 13363 ft | 321 kts | 154° |
| 2026-04-28 00:54 | -5.38642 | 106.86225 | 12935 ft | 318 kts | 154° |
| 2026-04-28 00:54 | -5.40600 | 106.87113 | 12409 ft | 302 kts | 154° |
| 2026-04-28 00:55 | -5.42491 | 106.87970 | 11396 ft | 296 kts | 154° |
| 2026-04-28 00:55 | -5.44397 | 106.88833 | 10744 ft | 303 kts | 154° |
| 2026-04-28 00:55 | -5.46356 | 106.89519 | 10622 ft | 294 kts | 163° |
| 2026-04-28 00:55 | -5.48371 | 106.89836 | 10512 ft | 285 kts | 171° |
| 2026-04-28 00:56 | -5.50328 | 106.89998 | 10336 ft | 279 kts | 173° |
| 2026-04-28 00:56 | -5.52238 | 106.90071 | 10168 ft | 273 kts | 175° |
| 2026-04-28 00:56 | -5.54136 | 106.90076 | 9855 ft | 272 kts | 176° |
| 2026-04-28 00:56 | -5.56082 | 106.90048 | 9533 ft | 272 kts | 177° |
| 2026-04-28 00:57 | -5.57999 | 106.90014 | 9222 ft | 271 kts | 177° |
| 2026-04-28 00:57 | -5.59877 | 106.89984 | 8919 ft | 270 kts | 177° |
| 2026-04-28 00:57 | -5.61755 | 106.89955 | 8619 ft | 269 kts | 177° |
| 2026-04-28 00:57 | -5.63699 | 106.89926 | 8309 ft | 268 kts | 177° |
| 2026-04-28 00:58 | -5.65482 | 106.89899 | 8025 ft | 267 kts | 177° |
| 2026-04-28 00:58 | -5.67341 | 106.89873 | 7728 ft | 267 kts | 177° |
| 2026-04-28 00:58 | -5.69192 | 106.89845 | 7422 ft | 267 kts | 178° |
| 2026-04-28 00:58 | -5.71045 | 106.89816 | 7128 ft | 266 kts | 178° |
| 2026-04-28 00:59 | -5.72902 | 106.89789 | 6813 ft | 266 kts | 178° |
| 2026-04-28 00:59 | -5.74748 | 106.89748 | 6509 ft | 265 kts | 178° |
| 2026-04-28 00:59 | -5.76620 | 106.89709 | 6209 ft | 265 kts | 178° |
| 2026-04-28 00:59 | -5.78442 | 106.89664 | 5910 ft | 265 kts | 179° |
| 2026-04-28 01:00 | -5.80322 | 106.89623 | 5600 ft | 265 kts | 178° |
| 2026-04-28 01:00 | -5.82207 | 106.89586 | 5288 ft | 265 kts | 178° |
| 2026-04-28 01:00 | -5.84053 | 106.89548 | 4983 ft | 265 kts | 179° |
| 2026-04-28 01:00 | -5.85824 | 106.89511 | 4691 ft | 264 kts | 179° |
| 2026-04-28 01:01 | -5.87728 | 106.89471 | 4377 ft | 263 kts | 179° |
| 2026-04-28 01:01 | -5.89580 | 106.89432 | 4072 ft | 263 kts | 179° |
| 2026-04-28 01:01 | -5.91407 | 106.89393 | 3770 ft | 263 kts | 179° |
| 2026-04-28 01:01 | -5.93216 | 106.89355 | 3472 ft | 262 kts | 180° |
| 2026-04-28 01:02 | -5.95059 | 106.89249 | 3174 ft | 261 kts | 186° |
| 2026-04-28 01:02 | -5.96799 | 106.88787 | 2981 ft | 257 kts | 203° |
| 2026-04-28 01:02 | -5.98245 | 106.87815 | 2934 ft | 244 kts | 220° |
| 2026-04-28 01:02 | -5.99383 | 106.86674 | 2780 ft | 220 kts | 225° |
| 2026-04-28 01:03 | -6.00067 | 106.85982 | 2639 ft | 210 kts | 224° |
| 2026-04-28 01:03 | -6.01158 | 106.84952 | 2351 ft | 204 kts | 222° |
| 2026-04-28 01:03 | -6.02210 | 106.84014 | 2232 ft | 202 kts | 221° |
| 2026-04-28 01:03 | -6.03283 | 106.83077 | 2118 ft | 204 kts | 221° |
| 2026-04-28 01:04 | -6.04295 | 106.82078 | 2071 ft | 200 kts | 232° |
| 2026-04-28 01:04 | -6.04995 | 106.80887 | 2031 ft | 194 kts | 246° |
| 2026-04-28 01:04 | -6.05501 | 106.79661 | 2001 ft | 185 kts | 251° |
| 2026-04-28 01:04 | -6.05940 | 106.78466 | 2014 ft | 184 kts | 252° |
| 2026-04-28 01:05 | -6.06356 | 106.77240 | 1990 ft | 180 kts | 254° |
| 2026-04-28 01:05 | -6.06731 | 106.76088 | 1986 ft | 168 kts | 254° |
| 2026-04-28 01:05 | -6.07133 | 106.74990 | 1862 ft | 173 kts | 250° |
| 2026-04-28 01:05 | -6.07604 | 106.73833 | 1674 ft | 178 kts | 248° |
| 2026-04-28 01:06 | -6.08060 | 106.72741 | 1287 ft | 167 kts | 246° |
| 2026-04-28 01:06 | -6.08522 | 106.71613 | 954 ft | 150 kts | 246° |
| 2026-04-28 01:06 | -6.08919 | 106.70630 | 751 ft | 136 kts | 246° |
| 2026-04-28 01:06 | -6.09285 | 106.69720 | 639 ft | 139 kts | 249° |
| 2026-04-28 01:07 | -6.09651 | 106.68808 | 476 ft | 140 kts | 250° |
| 2026-04-28 01:07 | -6.10014 | 106.67900 | 290 ft | 140 kts | 250° |
| 2026-04-28 01:07 | -6.10377 | 106.66994 | 107 ft | 143 kts | 250° |
| 2026-04-28 01:07 | -6.10623 | 106.66391 | 54 ft | 126 kts | 250° |
| 2026-04-28 01:08 | -6.10974 | 106.65495 | 48 ft | 76 kts | 248° |
| 2026-04-28 01:08 | -6.11131 | 106.65105 | 48 ft | 45 kts | 248° |
| 2026-04-28 01:08 | -6.11248 | 106.64859 | 48 ft | 36 kts | 230° |
| 2026-04-28 01:08 | -6.11355 | 106.64763 | 48 ft | 19 kts | 217° |
| 2026-04-28 01:09 | -6.11398 | 106.64732 | 48 ft | 6 kts | 210° |
| 2026-04-28 01:09 | -6.11437 | 106.64716 | 48 ft | 7 kts | 195° |
| 2026-04-28 01:09 | -6.11493 | 106.64720 | 48 ft | 9 kts | 161° |
| 2026-04-28 01:09 | -6.11545 | 106.64764 | 48 ft | 11 kts | 108° |
| 2026-04-28 01:10 | -6.11526 | 106.64840 | 48 ft | 13 kts | 66° |
| 2026-04-28 01:10 | -6.11486 | 106.64940 | 48 ft | 16 kts | 69° |
| 2026-04-28 01:10 | -6.11444 | 106.65049 | 48 ft | 18 kts | 69° |
| 2026-04-28 01:10 | -6.11389 | 106.65186 | 48 ft | 24 kts | 68° |
| 2026-04-28 01:11 | -6.11319 | 106.65359 | 48 ft | 30 kts | 69° |
| 2026-04-28 01:11 | -6.11250 | 106.65534 | 48 ft | 22 kts | 68° |
| 2026-04-28 01:11 | -6.11245 | 106.65604 | 48 ft | 10 kts | 131° |
| 2026-04-28 01:11 | -6.11317 | 106.65645 | 48 ft | 15 kts | 159° |
| 2026-04-28 01:12 | -6.11423 | 106.65644 | 48 ft | 18 kts | 208° |
| 2026-04-28 01:12 | -6.11503 | 106.65579 | 48 ft | 16 kts | 218° |
| 2026-04-28 01:12 | -6.11577 | 106.65552 | 48 ft | 13 kts | 176° |
| 2026-04-28 01:12 | -6.11670 | 106.65582 | 48 ft | 16 kts | 158° |
| 2026-04-28 01:13 | -6.11792 | 106.65631 | 48 ft | 21 kts | 158° |
| 2026-04-28 01:13 | -6.11919 | 106.65690 | 48 ft | 4 kts | 124° |
| 2026-04-28 01:13 | -6.11912 | 106.65717 | 48 ft | 6 kts | 62° |
| 2026-04-28 01:14 | -6.11899 | 106.65745 | 48 ft | 0 kts | 66° |